Time,TemperatureF,DewpointF,PressureIn,WindDirection,WindDirectionDegrees,WindSpeedMPH,WindSpeedGustMPH,Humidity,HourlyPrecipIn,Conditions,Clouds,dailyrainin,SoftwareType,DateUTC
2013-02-21 00:03:00,25.0,10.0,30.09,West,271,1.0,-999.0,53,-99.99,,,0.00,weatherlink.com 1.10,2013-02-21 05:03:00,
2013-02-21 00:18:00,25.0,10.0,30.08,SSE,168,2.0,-999.0,54,-99.99,,,0.00,weatherlink.com 1.10,2013-02-21 05:18:00,
2013-02-21 00:33:00,24.7,10.0,30.05,SSE,151,6.0,-999.0,54,-99.99,,,0.00,weatherlink.com 1.10,2013-02-21 05:33:00,
2013-02-21 00:48:00,24.4,10.0,30.05,SSE,155,5.0,-999.0,54,-99.99,,,0.00,weatherlink.com 1.10,2013-02-21 05:48:00,
2013-02-21 01:03:00,24.2,10.0,30.06,SSW,198,3.0,-999.0,54,-99.99,,,0.00,weatherlink.com 1.10,2013-02-21 06:03:00,
2013-02-21 01:18:00,24.1,10.0,30.06,South,174,0.0,-999.0,54,-99.99,,,0.00,weatherlink.com 1.10,2013-02-21 06:18:00,
2013-02-21 01:33:00,23.9,9.0,30.06,SSE,150,5.0,-999.0,54,-99.99,,,0.00,weatherlink.com 1.10,2013-02-21 06:33:00,
2013-02-21 01:48:00,23.9,9.0,30.06,SSW,192,6.0,-999.0,54,-99.99,,,0.00,weatherlink.com 1.10,2013-02-21 06:48:00,
2013-02-21 02:03:00,24.1,9.0,30.07,South,182,7.0,-999.0,53,-99.99,,,0.00,weatherlink.com 1.10,2013-02-21 07:03:00,
2013-02-21 02:18:00,24.2,9.0,30.07,SSW,208,3.0,-999.0,52,-99.99,,,0.00,weatherlink.com 1.10,2013-02-21 07:18:00,
2013-02-21 02:34:00,24.4,8.0,30.08,SE,133,0.0,-999.0,50,-99.99,,,0.00,weatherlink.com 1.10,2013-02-21 07:34:00,
2013-02-21 02:48:00,24.8,6.0,30.07,South,179,6.0,-999.0,45,-99.99,,,0.00,weatherlink.com 1.10,2013-02-21 07:48:00,
2013-02-21 03:03:00,25.3,5.0,30.07,SE,143,5.0,-999.0,42,-99.99,,,0.00,weatherlink.com 1.10,2013-02-21 08:03:00,
2013-02-21 03:19:00,25.6,5.0,30.07,SSE,168,6.0,-999.0,41,-99.99,,,0.00,weatherlink.com 1.10,2013-02-21 08:19:00,
2013-02-21 03:34:00,25.7,4.0,30.07,SSE,161,4.0,-999.0,39,-99.99,,,0.00,weatherlink.com 1.10,2013-02-21 08:34:00,
2013-02-21 03:49:00,26.0,3.0,30.07,South,185,5.0,-999.0,37,-99.99,,,0.00,weatherlink.com 1.10,2013-02-21 08:49:00,
2013-02-21 04:04:00,26.3,2.0,30.07,SSW,202,4.0,-999.0,35,-99.99,,,0.00,weatherlink.com 1.10,2013-02-21 09:04:00,
2013-02-21 04:19:00,26.7,0.0,30.07,SW,227,5.0,-999.0,31,-99.99,,,0.00,weatherlink.com 1.10,2013-02-21 09:19:00,
2013-02-21 04:34:00,26.9,-1.0,30.08,SSW,195,5.0,-999.0,30,-99.99,,,0.00,weatherlink.com 1.10,2013-02-21 09:34:00,
2013-02-21 04:49:00,27.2,-2.0,30.09,South,172,5.0,-999.0,28,-99.99,,,0.00,weatherlink.com 1.10,2013-02-21 09:49:00,
2013-02-21 05:04:00,27.3,-1.0,30.09,SSW,192,5.0,-999.0,29,-99.99,,,0.00,weatherlink.com 1.10,2013-02-21 10:04:00,
2013-02-21 05:19:00,27.3,-1.0,30.09,South,175,3.0,-999.0,30,-99.99,,,0.00,weatherlink.com 1.10,2013-02-21 10:19:00,
2013-02-21 05:34:00,27.0,-1.0,30.10,SSW,199,2.0,-999.0,30,-99.99,,,0.00,weatherlink.com 1.10,2013-02-21 10:34:00,
2013-02-21 05:49:00,27.0,-1.0,30.11,SSE,164,6.0,-999.0,30,-99.99,,,0.00,weatherlink.com 1.10,2013-02-21 10:49:00,
2013-02-21 06:04:00,27.2,-1.0,30.11,SW,224,3.0,-999.0,29,-99.99,,,0.00,weatherlink.com 1.10,2013-02-21 11:04:00,
2013-02-21 06:19:00,27.5,-2.0,30.12,South,185,0.0,-999.0,28,-99.99,,,0.00,weatherlink.com 1.10,2013-02-21 11:19:00,
2013-02-21 06:34:00,27.6,-2.0,30.13,SSW,203,4.0,-999.0,28,-99.99,,,0.00,weatherlink.com 1.10,2013-02-21 11:34:00,
2013-02-21 06:49:00,27.8,-2.0,30.14,WSW,246,3.0,-999.0,28,-99.99,,,0.00,weatherlink.com 1.10,2013-02-21 11:49:00,
2013-02-21 07:04:00,27.8,-1.0,30.14,SSW,198,6.0,-999.0,29,-99.99,,,0.00,weatherlink.com 1.10,2013-02-21 12:04:00,
2013-02-21 07:19:00,27.8,0.0,30.14,SSE,155,5.0,-999.0,30,-99.99,,,0.00,weatherlink.com 1.10,2013-02-21 12:19:00,
2013-02-21 07:35:00,27.8,1.0,30.15,SSE,165,5.0,-999.0,31,-99.99,,,0.00,weatherlink.com 1.10,2013-02-21 12:35:00,
2013-02-21 07:50:00,27.9,1.0,30.15,SSE,165,6.0,-999.0,31,-99.99,,,0.00,weatherlink.com 1.10,2013-02-21 12:50:00,
2013-02-21 08:05:00,28.4,2.0,30.16,SSE,157,3.0,-999.0,32,-99.99,,,0.00,weatherlink.com 1.10,2013-02-21 13:05:00,
2013-02-21 08:20:00,29.5,2.0,30.16,SSE,148,3.0,-999.0,30,-99.99,,,0.00,weatherlink.com 1.10,2013-02-21 13:20:00,
2013-02-21 08:35:00,30.3,1.0,30.16,SSE,168,8.0,-999.0,29,-99.99,,,0.00,weatherlink.com 1.10,2013-02-21 13:35:00,
2013-02-21 08:50:00,31.3,2.0,30.16,SSE,155,6.0,-999.0,29,-99.99,,,0.00,weatherlink.com 1.10,2013-02-21 13:50:00,
2013-02-21 09:05:00,32.9,2.0,30.15,SSE,164,3.0,-999.0,27,-99.99,,,0.00,weatherlink.com 1.10,2013-02-21 14:05:00,
2013-02-21 09:20:00,34.7,1.0,30.14,SSE,164,1.0,-999.0,24,-99.99,,,0.00,weatherlink.com 1.10,2013-02-21 14:20:00,
2013-02-21 09:35:00,36.3,2.0,30.15,South,178,6.0,-999.0,23,-99.99,,,0.00,weatherlink.com 1.10,2013-02-21 14:35:00,
2013-02-21 09:50:00,38.0,1.0,30.14,South,172,7.0,-999.0,21,-99.99,,,0.00,weatherlink.com 1.10,2013-02-21 14:50:00,
2013-02-21 10:05:00,38.9,2.0,30.14,SW,219,4.0,-999.0,21,-99.99,,,0.00,weatherlink.com 1.10,2013-02-21 15:05:00,
2013-02-21 10:20:00,40.5,3.0,30.14,SE,136,1.0,-999.0,21,-99.99,,,0.00,weatherlink.com 1.10,2013-02-21 15:20:00,
2013-02-21 10:36:00,41.5,3.0,30.14,SSE,157,6.0,-999.0,20,-99.99,,,0.00,weatherlink.com 1.10,2013-02-21 15:36:00,
2013-02-21 10:51:00,43.1,3.0,30.13,SSW,199,1.0,-999.0,19,-99.99,,,0.00,weatherlink.com 1.10,2013-02-21 15:51:00,
2013-02-21 11:05:00,44.3,3.0,30.13,SE,144,1.0,-999.0,18,-99.99,,,0.00,weatherlink.com 1.10,2013-02-21 16:05:00,
2013-02-21 11:21:00,45.4,4.0,30.13,SSE,160,3.0,-999.0,18,-99.99,,,0.00,weatherlink.com 1.10,2013-02-21 16:21:00,
2013-02-21 11:36:00,46.0,1.0,30.13,SSW,198,3.0,-999.0,15,-99.99,,,0.00,weatherlink.com 1.10,2013-02-21 16:36:00,
2013-02-21 11:51:00,47.3,2.0,30.12,NE,35,0.0,-999.0,15,-99.99,,,0.00,weatherlink.com 1.10,2013-02-21 16:51:00,
2013-02-21 12:06:00,48.6,0.0,30.10,West,275,3.0,-999.0,13,-99.99,,,0.00,weatherlink.com 1.10,2013-02-21 17:06:00,
2013-02-21 12:21:00,50.2,5.0,30.09,WNW,294,0.0,-999.0,16,-99.99,,,0.00,weatherlink.com 1.10,2013-02-21 17:21:00,
2013-02-21 12:36:00,51.3,-2.0,30.08,West,277,0.0,-999.0,11,-99.99,,,0.00,weatherlink.com 1.10,2013-02-21 17:36:00,
2013-02-21 12:51:00,52.0,-1.0,30.07,SSE,147,2.0,-999.0,11,-99.99,,,0.00,weatherlink.com 1.10,2013-02-21 17:51:00,
2013-02-21 13:06:00,52.5,-5.0,30.06,South,184,1.0,-999.0,9,-99.99,,,0.00,weatherlink.com 1.10,2013-02-21 18:06:00,
2013-02-21 13:21:00,53.3,0.0,30.05,West,278,0.0,-999.0,11,-99.99,,,0.00,weatherlink.com 1.10,2013-02-21 18:21:00,
2013-02-21 13:36:00,54.4,-4.0,30.04,South,185,1.0,-999.0,9,-99.99,,,0.00,weatherlink.com 1.10,2013-02-21 18:36:00,
2013-02-21 13:52:00,54.5,6.0,30.03,NW,322,2.0,-999.0,14,-99.99,,,0.00,weatherlink.com 1.10,2013-02-21 18:52:00,
2013-02-21 14:06:00,55.0,1.0,30.02,WNW,292,1.0,-999.0,11,-99.99,,,0.00,weatherlink.com 1.10,2013-02-21 19:06:00,
2013-02-21 14:21:00,55.6,2.0,30.03,West,268,0.0,-999.0,11,-99.99,,,0.00,weatherlink.com 1.10,2013-02-21 19:21:00,
2013-02-21 14:37:00,56.0,12.0,30.02,NW,305,0.0,-999.0,17,-99.99,,,0.00,weatherlink.com 1.10,2013-02-21 19:37:00,
2013-02-21 14:52:00,54.5,13.0,30.02,ENE,76,1.0,-999.0,19,-99.99,,,0.00,weatherlink.com 1.10,2013-02-21 19:52:00,
2013-02-21 15:07:00,54.7,17.0,30.02,North,0,1.0,-999.0,23,-99.99,,,0.00,weatherlink.com 1.10,2013-02-21 20:07:00,
2013-02-21 15:22:00,54.4,16.0,30.03,North,349,1.0,-999.0,22,-99.99,,,0.00,weatherlink.com 1.10,2013-02-21 20:22:00,
2013-02-21 15:37:00,53.3,14.0,30.03,ENE,72,2.0,-999.0,21,-99.99,,,0.00,weatherlink.com 1.10,2013-02-21 20:37:00,
2013-02-21 15:52:00,51.7,13.0,30.03,South,186,0.0,-999.0,21,-99.99,,,0.00,weatherlink.com 1.10,2013-02-21 20:52:00,
2013-02-21 16:07:00,50.7,13.0,30.05,SSE,150,0.0,-999.0,22,-99.99,,,0.00,weatherlink.com 1.10,2013-02-21 21:07:00,
2013-02-21 16:22:00,49.9,10.0,30.05,NE,48,0.0,-999.0,20,-99.99,,,0.00,weatherlink.com 1.10,2013-02-21 21:22:00,
2013-02-21 16:37:00,49.1,13.0,30.07,NNE,18,0.0,-999.0,23,-99.99,,,0.00,weatherlink.com 1.10,2013-02-21 21:37:00,
2013-02-21 16:52:00,48.2,10.0,30.07,NE,38,0.0,-999.0,21,-99.99,,,0.00,weatherlink.com 1.10,2013-02-21 21:52:00,
2013-02-21 17:07:00,47.4,12.0,30.07,NNE,31,0.0,-999.0,24,-99.99,,,0.00,weatherlink.com 1.10,2013-02-21 22:07:00,
2013-02-21 17:22:00,46.8,12.0,30.06,NE,34,0.0,-999.0,24,-99.99,,,0.00,weatherlink.com 1.10,2013-02-21 22:22:00,
2013-02-21 17:37:00,46.1,13.0,30.07,NE,34,0.0,-999.0,26,-99.99,,,0.00,weatherlink.com 1.10,2013-02-21 22:37:00,
2013-02-21 17:52:00,44.9,12.0,30.07,NE,34,0.0,-999.0,26,-99.99,,,0.00,weatherlink.com 1.10,2013-02-21 22:52:00,
2013-02-21 18:08:00,44.1,12.0,30.09,NE,55,0.0,-999.0,27,-99.99,,,0.00,weatherlink.com 1.10,2013-02-21 23:08:00,
2013-02-21 18:23:00,43.2,12.0,30.11,NE,51,0.0,-999.0,28,-99.99,,,0.00,weatherlink.com 1.10,2013-02-21 23:23:00,
2013-02-21 18:38:00,42.5,13.0,30.11,NE,51,0.0,-999.0,30,-99.99,,,0.00,weatherlink.com 1.10,2013-02-21 23:38:00,
2013-02-21 18:53:00,41.9,11.0,30.11,NE,51,0.0,-999.0,28,-99.99,,,0.00,weatherlink.com 1.10,2013-02-21 23:53:00,
2013-02-21 19:23:00,40.8,14.0,30.12,NE,51,0.0,-999.0,34,-99.99,,,0.00,weatherlink.com 1.10,2013-02-22 00:23:00,
2013-02-21 19:38:00,40.1,14.0,30.11,NE,51,0.0,-999.0,35,-99.99,,,0.00,weatherlink.com 1.10,2013-02-22 00:38:00,
2013-02-21 19:53:00,39.6,14.0,30.12,ESE,114,0.0,-999.0,35,-99.99,,,0.00,weatherlink.com 1.10,2013-02-22 00:53:00,
2013-02-21 20:08:00,39.3,14.0,30.12,ESE,114,0.0,-999.0,36,-99.99,,,0.00,weatherlink.com 1.10,2013-02-22 01:08:00,
2013-02-21 20:23:00,39.2,15.0,30.13,ESE,114,0.0,-999.0,37,-99.99,,,0.00,weatherlink.com 1.10,2013-02-22 01:23:00,
2013-02-21 20:38:00,38.9,14.0,30.11,ESE,114,0.0,-999.0,37,-99.99,,,0.00,weatherlink.com 1.10,2013-02-22 01:38:00,
2013-02-21 20:53:00,38.8,14.0,30.12,ESE,114,0.0,-999.0,37,-99.99,,,0.00,weatherlink.com 1.10,2013-02-22 01:53:00,
2013-02-21 21:08:00,38.6,16.0,30.13,ESE,114,0.0,-999.0,40,-99.99,,,0.00,weatherlink.com 1.10,2013-02-22 02:08:00,
2013-02-21 21:23:00,38.5,16.0,30.13,ESE,114,0.0,-999.0,40,-99.99,,,0.00,weatherlink.com 1.10,2013-02-22 02:23:00,
2013-02-21 21:38:00,38.5,16.0,30.11,ESE,114,0.0,-999.0,40,-99.99,,,0.00,weatherlink.com 1.10,2013-02-22 02:38:00,
2013-02-21 21:53:00,38.6,16.0,30.12,ESE,114,0.0,-999.0,40,-99.99,,,0.00,weatherlink.com 1.10,2013-02-22 02:53:00,
2013-02-21 22:08:00,38.6,19.0,30.13,ESE,117,0.0,-999.0,46,-99.99,,,0.00,weatherlink.com 1.10,2013-02-22 03:08:00,
2013-02-21 22:23:00,38.2,24.0,30.15,NE,52,0.0,-999.0,58,-99.99,,,0.00,weatherlink.com 1.10,2013-02-22 03:23:00,
2013-02-21 22:38:00,37.9,24.0,30.15,WSW,250,0.0,-999.0,57,-99.99,,,0.00,weatherlink.com 1.10,2013-02-22 03:38:00,
2013-02-21 22:53:00,36.9,26.0,30.14,SE,130,0.0,-999.0,65,-99.99,,,0.00,weatherlink.com 1.10,2013-02-22 03:53:00,
2013-02-21 23:08:00,35.9,28.0,30.15,SE,134,0.0,-999.0,74,-99.99,,,0.00,weatherlink.com 1.10,2013-02-22 04:08:00,
2013-02-21 23:23:00,35.0,29.0,30.16,SE,134,0.0,-999.0,80,-99.99,,,0.01,weatherlink.com 1.10,2013-02-22 04:23:00,
2013-02-21 23:39:00,34.4,29.0,30.14,East,100,0.0,-999.0,82,-99.99,,,0.01,weatherlink.com 1.10,2013-02-22 04:39:00,
2013-02-21 23:54:00,34.0,29.0,30.14,North,8,0.0,-999.0,83,-99.99,,,0.02,weatherlink.com 1.10,2013-02-22 04:54:00,